Stolford, United Kingdom

8:41 AM GMT on February 25, 2017 (GMT +0000)
Stockland Bristol, Somerset, UK | | Change Station

Elev 20 ft 51.19 °N, 3.08 °W | Updated 1 minute ago

Overcast
Overcast
49.8 °F
Feels Like 46 °F
N
9.2
Wind Variable Wind from SW
Gusts 10.7 mph

Today
High -- | Low -- °F
--% Chance of Precip.
Yesterday
High -- | Low -- °F
Precip. -- in
Pressure 29.92 in
Visibility 6.2 miles
Clouds Overcast 2200 ft
Windchill 46 °F
Dew Point 40 °F
Humidity 68%
Rainfall 0.00 in
Snow Depth Not available.
7:05 AM 5:46 PM
Waning Crescent, 2% visible
METAR EGFF 250820Z AUTO 24010KT 9999 OVC022 09/06 Q1013
Pressure 29.92 in
Visibility 6.2 miles
Clouds Overcast 2200 ft
Windchill 46 °F
Dew Point 40 °F
Humidity 68%
Rainfall 0.00 in
Snow Depth Not available.
7:05 AM 5:46 PM
Waning Crescent, 2% visible
METAR EGFF 250820Z AUTO 24010KT 9999 OVC022 09/06 Q1013

Get Your Daily Forecast Email!

Thanks for signing up!

Be on the lookout for a verification email in your inbox.

You'll start receiving the daily forecast at 8 AM.

×

10-Day Weather Forecast

×

Almanac

Astronomy

Feb. 25, 2017 Rise Set
Actual Time
Civil Twilight
Nautical Twilight
Astronomical Twilight
Moon
Length of Visible Light
Length of Day
Tomorrow will be .
, % of the Moon is Illuminated

Today's Extremes

Country Highs Country Lows

Community

WunderPhotos

Upload Photos

1,962,540 photos uploaded!

WunderBlog® & News

Nearby

Air Quality

  Air Quality AQ Index Pollutant
Not available.

Snow Depth

Station Depth Elevation

Earthquake Activity

City Distance Mag. Time & Date
Minimum magnitude displayed is 2.5.

Coastal Water Temperatures

Place Temperature

Stations

Nearby Weather Stations

Station Location Temp. Windchill Dew Point Humidity Wind Precip. Elev Updated Type